Time;durP1;ratioP1;P1;durP2;ratioP2;P2;SDS_P1;SDS_P2;PMS_P1;PMS_P2;Temp;Humidity;BMP_temperature;BMP_pressure;BME280_temperature;BME280_humidity;BME280_pressure;Samples;Min_cycle;Max_cycle;Signal;HPM_P1;HPM_P2
2023/01/02 00:02:15;;;;;;;9.57;9.07;;;;;;;5.18;100.00;101870.38;5011980;28;20033;-68
2023/01/02 00:04:41;;;;;;;9.05;8.65;;;;;;;5.23;100.00;101873.56;5013254;28;20106;-68
2023/01/02 00:07:06;;;;;;;8.85;8.45;;;;;;;5.16;100.00;101874.91;5010899;28;20038;-68
2023/01/02 00:09:32;;;;;;;9.52;9.02;;;;;;;5.23;100.00;101876.19;5013418;28;20036;-68
2023/01/02 00:11:57;;;;;;;9.65;9.15;;;;;;;5.22;100.00;101867.44;5012474;28;20026;-68
2023/01/02 00:14:23;;;;;;;9.63;9.13;;;;;;;5.16;100.00;101881.03;5010116;28;20420;-68
2023/01/02 00:16:48;;;;;;;9.77;9.27;;;;;;;5.07;100.00;101886.06;5011710;28;20030;-68
2023/01/02 00:19:14;;;;;;;9.82;9.32;;;;;;;5.09;100.00;101887.66;5013391;28;20504;-68
2023/01/02 00:21:39;;;;;;;9.30;8.85;;;;;;;4.98;100.00;101885.75;5013082;28;20025;-69
2023/01/02 00:24:05;;;;;;;9.27;8.88;;;;;;;5.02;100.00;101889.03;5011141;28;20029;-68
2023/01/02 00:26:30;;;;;;;9.77;9.27;;;;;;;5.05;100.00;101893.22;5012076;28;20029;-68
2023/01/02 00:28:56;;;;;;;9.13;8.73;;;;;;;4.99;100.00;101886.59;5013346;28;20025;-69
2023/01/02 00:31:21;;;;;;;9.07;8.68;;;;;;;4.95;100.00;101874.59;5013119;28;20485;-69
2023/01/02 00:33:47;;;;;;;9.50;9.00;;;;;;;4.83;100.00;101881.53;5010265;28;20433;-69
2023/01/02 00:36:12;;;;;;;9.60;9.10;;;;;;;4.85;100.00;101884.09;5013172;28;20032;-67
2023/01/02 00:38:39;;;;;;;10.05;9.55;;;;;;;4.81;100.00;101866.81;5012789;28;20474;-68
2023/01/02 00:41:05;;;;;;;9.10;8.70;;;;;;;4.90;100.00;101876.72;5012419;28;20049;-68
2023/01/02 00:43:31;;;;;;;9.02;8.63;;;;;;;5.00;100.00;101883.03;5012760;28;20064;-68
2023/01/02 00:45:57;;;;;;;9.45;8.95;;;;;;;4.94;100.00;101870.31;5010778;28;20053;-67
2023/01/02 00:48:22;;;;;;;9.02;8.63;;;;;;;4.90;100.00;101871.44;5012682;28;20030;-68
2023/01/02 00:50:48;;;;;;;9.35;8.90;;;;;;;4.91;100.00;101870.50;5010556;28;20134;-68
2023/01/02 00:53:15;;;;;;;9.82;9.32;;;;;;;4.89;100.00;101875.03;5012539;28;20038;-68
2023/01/02 00:55:43;;;;;;;9.45;9.00;;;;;;;4.83;100.00;101875.44;5012116;28;20044;-68
2023/01/02 00:58:08;;;;;;;9.05;8.65;;;;;;;4.81;100.00;101877.34;5009969;28;20038;-68
2023/01/02 01:00:34;;;;;;;9.70;9.20;;;;;;;4.88;100.00;101876.81;5012363;28;20503;-68
2023/01/02 01:02:59;;;;;;;9.30;8.90;;;;;;;4.91;100.00;101863.44;5012421;28;20084;-68
2023/01/02 01:05:26;;;;;;;9.20;8.80;;;;;;;4.95;100.00;101874.59;5012131;28;20029;-69
2023/01/02 01:07:53;;;;;;;9.43;8.98;;;;;;;4.98;100.00;101874.38;5010629;28;20115;-68
2023/01/02 01:10:19;;;;;;;9.73;9.23;;;;;;;4.93;100.00;101871.25;5012397;28;20032;-69
2023/01/02 01:12:45;;;;;;;9.35;8.88;;;;;;;4.76;100.00;101876.78;5012192;28;20030;-68
2023/01/02 01:15:10;;;;;;;9.02;8.63;;;;;;;4.76;100.00;101876.78;5009461;28;20079;-68
2023/01/02 01:17:36;;;;;;;8.77;8.38;;;;;;;4.47;100.00;101868.25;5011812;28;20038;-69
2023/01/02 01:20:01;;;;;;;9.10;8.70;;;;;;;4.36;100.00;101871.59;5010829;28;20339;-67
2023/01/02 01:22:27;;;;;;;8.88;8.48;;;;;;;4.52;100.00;101872.25;5009729;28;20525;-69
2023/01/02 01:24:52;;;;;;;9.88;9.38;;;;;;;4.49;100.00;101866.38;5012003;28;20044;-68
2023/01/02 01:27:17;;;;;;;9.20;8.73;;;;;;;4.46;100.00;101867.41;5012124;28;20117;-68
2023/01/02 01:29:43;;;;;;;9.13;8.73;;;;;;;4.45;100.00;101870.97;5012958;28;20022;-69
2023/01/02 01:32:08;;;;;;;9.32;8.85;;;;;;;4.27;100.00;101866.97;5010831;28;20437;-69
2023/01/02 01:34:34;;;;;;;8.73;8.32;;;;;;;4.40;100.00;101873.06;5012027;28;20076;-69
2023/01/02 01:36:59;;;;;;;8.80;8.40;;;;;;;4.35;100.00;101856.78;5009658;28;20029;-68
2023/01/02 01:39:25;;;;;;;9.15;8.75;;;;;;;4.47;100.00;101868.25;5011718;28;21071;-68
2023/01/02 01:41:51;;;;;;;9.30;8.80;;;;;;;4.38;100.00;101856.56;5011089;28;20401;-68
2023/01/02 01:44:38;;;;;;;8.88;8.48;;;;;;;4.38;100.00;101864.44;5010232;28;20401;-68
2023/01/02 01:47:04;;;;;;;8.70;8.30;;;;;;;4.43;100.00;101873.72;5011820;28;20040;-67
2023/01/02 01:49:29;;;;;;;9.23;8.75;;;;;;;4.44;100.00;101861.41;5008731;28;20117;-68
2023/01/02 01:52:02;;;;;;;8.75;8.35;;;;;;;4.46;100.00;101870.03;5011888;28;20540;-68
2023/01/02 01:54:38;;;;;;;8.98;8.57;;;;;;;4.28;100.00;101858.13;5026725;28;20030;-68
2023/01/02 01:57:11;;;;;;;8.80;8.40;;;;;;;4.26;100.00;101862.63;5011424;28;20085;-68
2023/01/02 01:59:38;;;;;;;8.97;8.57;;;;;;;4.22;100.00;101862.00;5010518;28;20076;-68
2023/01/02 02:02:04;;;;;;;9.15;8.75;;;;;;;4.29;100.00;101860.66;5011527;28;20022;-68
2023/01/02 02:04:30;;;;;;;8.88;8.48;;;;;;;4.27;100.00;101857.28;5011379;28;20030;-68
2023/01/02 02:06:55;;;;;;;9.50;9.00;;;;;;;4.27;100.00;101861.69;5010721;28;20167;-68
2023/01/02 02:09:39;;;;;;;9.13;8.73;;;;;;;4.27;100.00;101861.69;5011547;28;20026;-68
2023/01/02 02:12:06;;;;;;;8.90;8.50;;;;;;;4.34;100.00;101861.19;5009601;28;20022;-67
2023/01/02 02:14:31;;;;;;;9.18;8.75;;;;;;;4.43;100.00;101867.63;5010821;28;20061;-68
2023/01/02 02:17:21;;;;;;;9.52;9.02;;;;;;;4.42;100.00;101869.41;5012462;28;20494;-69
2023/01/02 02:20:02;;;;;;;9.55;9.05;;;;;;;4.42;100.00;101863.31;5009313;28;20544;-68
2023/01/02 02:22:58;;;;;;;8.93;8.52;;;;;;;4.36;100.00;101861.09;5011139;28;20069;-67
2023/01/02 02:25:55;;;;;;;9.15;8.75;;;;;;;4.35;100.00;101857.63;5011440;28;20084;-68
2023/01/02 02:28:58;;;;;;;8.80;8.40;;;;;;;4.31;100.00;101855.28;5010484;28;20033;-68
2023/01/02 02:31:33;;;;;;;9.07;8.68;;;;;;;4.32;100.00;101863.06;5010173;28;20029;-68
2023/01/02 02:34:13;;;;;;;9.07;8.68;;;;;;;4.05;100.00;101857.84;5014307;28;20528;-68
2023/01/02 02:36:46;;;;;;;9.45;9.00;;;;;;;3.99;100.00;101850.38;5012053;28;20409;-68
2023/01/02 02:39:14;;;;;;;9.27;8.77;;;;;;;3.98;100.00;101853.09;5013234;28;20030;-68
2023/01/02 02:41:46;;;;;;;9.57;9.07;;;;;;;3.99;100.00;101850.38;5015144;28;20072;-68
2023/01/02 02:44:30;;;;;;;9.38;8.88;;;;;;;3.90;100.00;101852.75;5014912;28;20029;-68
2023/01/02 02:47:21;;;;;;;9.02;8.63;;;;;;;3.93;100.00;101860.44;5013668;28;20025;-68
2023/01/02 02:50:09;;;;;;;9.90;9.40;;;;;;;3.90;100.00;101860.63;5011678;28;20034;-68
2023/01/02 02:52:56;;;;;;;8.98;8.57;;;;;;;3.91;100.00;101863.16;5014796;28;20029;-68
2023/01/02 02:55:21;;;;;;;9.57;9.07;;;;;;;4.00;100.00;101874.84;5014930;28;20277;-68
2023/01/02 02:57:48;;;;;;;9.13;8.73;;;;;;;4.15;100.00;101877.31;5014252;28;20125;-68
2023/01/02 03:00:16;;;;;;;10.05;9.55;;;;;;;4.07;100.00;101870.88;5013844;28;20381;-68
2023/01/02 03:02:41;;;;;;;9.18;8.77;;;;;;;4.04;100.00;101877.19;5013392;28;20261;-68
2023/01/02 03:05:10;;;;;;;8.77;8.38;;;;;;;4.09;100.00;101882.94;5013588;28;20040;-67
2023/01/02 03:07:57;;;;;;;9.60;9.10;;;;;;;4.14;100.00;101878.25;5014625;28;20080;-68
2023/01/02 03:10:31;;;;;;;9.38;8.95;;;;;;;4.03;100.00;101879.88;5014523;28;20057;-68
2023/01/02 03:13:23;;;;;;;9.57;9.07;;;;;;;4.02;100.00;101879.03;5013578;28;20029;-68
2023/01/02 03:16:15;;;;;;;9.15;8.75;;;;;;;4.03;100.00;101874.63;5011054;28;20038;-69
2023/01/02 03:18:56;;;;;;;9.20;8.80;;;;;;;4.14;100.00;101878.25;4984256;28;20112;-68
2023/01/02 03:21:25;;;;;;;9.80;9.30;;;;;;;4.02;100.00;101879.03;5012709;28;20036;-68
2023/01/02 03:23:52;;;;;;;9.15;8.75;;;;;;;4.11;100.00;101877.59;5014204;28;20481;-68
2023/01/02 03:26:27;;;;;;;9.15;8.75;;;;;;;3.96;100.00;101879.44;5014556;28;20040;-68
2023/01/02 03:28:58;;;;;;;9.50;9.00;;;;;;;3.93;100.00;101884.91;5014772;28;20026;-68
2023/01/02 03:31:26;;;;;;;9.50;9.00;;;;;;;3.83;100.00;101879.41;5013992;28;20037;-68
2023/01/02 03:33:58;;;;;;;9.07;8.68;;;;;;;3.75;100.00;101879.03;5005886;28;20030;-68
2023/01/02 03:36:28;;;;;;;9.20;8.80;;;;;;;3.79;100.00;101877.06;5012536;28;20026;-68
2023/01/02 03:39:02;;;;;;;9.70;9.20;;;;;;;3.93;100.00;101881.44;5012454;28;20045;-68
2023/01/02 03:41:35;;;;;;;9.43;9.00;;;;;;;3.85;100.00;101885.38;5014019;28;20036;-67
2023/01/02 03:44:02;;;;;;;10.02;9.52;;;;;;;3.80;100.00;101884.00;5011519;28;20532;-69
2023/01/02 03:46:48;;;;;;;9.52;9.02;;;;;;;3.70;100.00;101882.91;5013709;28;20065;-67
2023/01/02 03:49:31;;;;;;;9.40;8.95;;;;;;;3.62;100.00;101880.75;5012834;28;20041;-68
2023/01/02 03:51:58;;;;;;;9.48;8.98;;;;;;;3.56;100.00;101889.84;5010274;28;20032;-69
2023/01/02 03:54:24;;;;;;;9.20;8.80;;;;;;;3.34;100.00;101892.13;5013691;28;20052;-68
2023/01/02 03:57:07;;;;;;;9.38;8.93;;;;;;;3.22;100.00;101885.84;5009373;28;20057;-67
2023/01/02 04:00:00;;;;;;;9.07;8.68;;;;;;;3.27;100.00;101883.78;5012072;28;20103;-69
2023/01/02 04:02:36;;;;;;;8.95;8.55;;;;;;;3.26;100.00;101868.16;5011203;28;20114;-67
2023/01/02 04:05:22;;;;;;;8.90;8.50;;;;;;;3.30;100.00;101880.97;5013343;28;20397;-68
2023/01/02 04:08:36;;;;;;;9.63;9.13;;;;;;;3.32;100.00;101879.09;5012721;28;20038;-68
2023/01/02 04:11:04;;;;;;;8.98;8.57;;;;;;;3.28;100.00;101876.75;4949650;29;20043;-68
2023/01/02 04:13:42;;;;;;;9.23;8.77;;;;;;;2.99;100.00;101873.28;4952877;29;20090;-68
2023/01/02 04:16:11;;;;;;;9.13;8.70;;;;;;;3.12;100.00;101884.72;4989460;28;20052;-68
2023/01/02 04:18:42;;;;;;;8.90;8.50;;;;;;;3.04;100.00;101889.59;5013307;28;20038;-68
2023/01/02 04:21:17;;;;;;;10.05;9.52;;;;;;;2.86;100.00;101903.78;5011288;28;20034;-67
2023/01/02 04:23:45;;;;;;;;;;;;;;;3.00;100.00;101907.25;5013459;28;20040;-68
2023/01/02 04:26:25;;;;;;;8.88;8.48;;;;;;;2.95;100.00;101895.41;5011371;28;19914;-69
2023/01/02 04:28:51;;;;;;;9.00;8.60;;;;;;;3.14;100.00;101902.97;5012070;28;20072;-67
2023/01/02 04:31:24;;;;;;;8.80;8.40;;;;;;;3.19;100.00;101898.31;5010957;28;20545;-68
2023/01/02 04:33:54;;;;;;;9.07;8.68;;;;;;;3.18;100.00;101894.00;5011232;28;20025;-69
2023/01/02 04:36:21;;;;;;;8.90;8.50;;;;;;;3.34;100.00;101884.25;5013079;28;20026;-69
2023/01/02 04:38:47;;;;;;;9.00;8.60;;;;;;;3.39;100.00;101897.09;5010987;28;20075;-68
2023/01/02 04:41:18;;;;;;;8.90;8.50;;;;;;;3.31;100.00;101892.31;5013016;28;20029;-68
2023/01/02 04:43:43;;;;;;;9.50;9.00;;;;;;;3.24;100.00;101906.75;5010238;28;20029;-69
2023/01/02 04:46:09;;;;;;;9.13;8.70;;;;;;;3.18;100.00;101902.72;5010817;28;20456;-68
2023/01/02 04:48:34;;;;;;;9.60;9.10;;;;;;;3.20;100.00;101908.69;5011390;28;20057;-69
2023/01/02 04:51:00;;;;;;;9.40;8.90;;;;;;;3.40;100.00;101901.41;5011785;28;20037;-69
2023/01/02 04:53:25;;;;;;;9.90;9.40;;;;;;;3.18;100.00;101909.72;5012202;28;20025;-68
2023/01/02 04:55:57;;;;;;;8.98;8.57;;;;;;;3.30;100.00;101896.69;5010229;28;20034;-68
2023/01/02 04:58:23;;;;;;;9.38;8.90;;;;;;;3.07;100.00;101894.63;5012437;28;20065;-69
2023/01/02 05:00:48;;;;;;;9.35;8.88;;;;;;;2.76;100.00;101880.75;5012398;28;20052;-69
2023/01/02 05:03:14;;;;;;;9.30;8.85;;;;;;;2.73;100.00;101887.97;5010796;28;20097;-68
2023/01/02 05:05:40;;;;;;;9.55;9.05;;;;;;;2.65;100.00;101888.41;5011429;28;20452;-69
2023/01/02 05:08:06;;;;;;;9.45;8.95;;;;;;;2.75;100.00;101889.56;5011777;28;20036;-68
2023/01/02 05:10:31;;;;;;;9.63;9.13;;;;;;;2.67;100.00;101901.41;5012246;28;20034;-68
2023/01/02 05:12:58;;;;;;;9.15;8.75;;;;;;;2.59;100.00;101901.03;5011753;28;20045;-70
2023/01/02 05:15:23;;;;;;;9.07;8.68;;;;;;;2.55;100.00;101899.50;5012387;28;20045;-68
2023/01/02 05:17:49;;;;;;;9.55;9.05;;;;;;;2.47;100.00;101892.09;5012363;28;20140;-68
2023/01/02 05:20:14;;;;;;;9.35;8.85;;;;;;;2.46;100.00;101900.88;5009144;28;20014;-68
2023/01/02 05:25:27;;;;;;;9.60;9.15;;;;;;;2.59;100.00;101906.28;5002060;28;20100;-67
2023/01/02 05:27:53;;;;;;;9.10;8.70;;;;;;;2.51;100.00;101914.56;5014005;28;20029;-68
2023/01/02 05:30:20;;;;;;;9.55;9.05;;;;;;;2.24;100.00;101913.53;5011238;28;20123;-68
2023/01/02 05:32:46;;;;;;;10.18;9.57;;;;;;;2.34;100.00;101915.53;5011677;28;20021;-68
2023/01/02 05:35:11;;;;;;;10.30;9.73;;;;;;;2.41;100.00;101921.25;5009871;28;20376;-68
2023/01/02 05:37:37;;;;;;;10.45;9.85;;;;;;;2.20;100.00;101912.84;5011995;28;20084;-68
2023/01/02 05:40:02;;;;;;;9.65;9.15;;;;;;;2.20;100.00;101924.19;5011970;28;20025;-68
2023/01/02 05:42:28;;;;;;;10.02;9.52;;;;;;;2.20;100.00;101926.81;5011814;28;20080;-68
2023/01/02 05:44:53;;;;;;;10.65;10.05;;;;;;;2.16;100.00;101932.28;5011914;28;20034;-68
2023/01/02 05:47:19;;;;;;;9.77;9.27;;;;;;;1.98;100.00;101928.06;5011652;28;20025;-67
2023/01/02 05:49:44;;;;;;;10.60;10.00;;;;;;;2.03;100.00;101936.50;5011469;28;20030;-68
2023/01/02 05:52:10;;;;;;;10.45;9.85;;;;;;;1.99;100.00;101924.53;5010647;28;20021;-68
2023/01/02 05:54:35;;;;;;;10.32;9.80;;;;;;;1.93;100.00;101928.34;5010406;28;20025;-69
2023/01/02 05:57:00;;;;;;;9.77;9.27;;;;;;;1.86;100.00;101924.38;5011720;28;20144;-69
2023/01/02 05:59:26;;;;;;;9.40;9.00;;;;;;;1.92;100.00;101927.50;5011328;28;20030;-68
2023/01/02 06:01:51;;;;;;;11.15;10.45;;;;;;;2.08;100.00;101930.09;5011749;28;20030;-69
2023/01/02 06:04:17;;;;;;;10.57;9.98;;;;;;;2.21;100.00;101936.34;5013134;28;20025;-68
2023/01/02 06:06:42;;;;;;;9.85;9.35;;;;;;;2.33;100.00;101929.53;5015815;28;20025;-69
2023/01/02 06:09:13;;;;;;;9.63;9.13;;;;;;;2.42;100.00;101925.56;5014339;28;20026;-69
2023/01/02 06:11:38;;;;;;;9.82;9.32;;;;;;;2.32;100.00;101927.88;5013593;28;20037;-69
2023/01/02 06:14:04;;;;;;;9.65;9.07;;;;;;;2.27;100.00;101929.88;5015714;28;20017;-68
2023/01/02 06:16:29;;;;;;;10.60;10.00;;;;;;;2.25;100.00;101917.81;5015399;28;20057;-67
2023/01/02 06:18:55;;;;;;;9.68;9.18;;;;;;;2.37;100.00;101925.84;5015258;28;20022;-68
2023/01/02 06:21:21;;;;;;;9.68;9.18;;;;;;;2.32;100.00;101925.25;5015166;28;20058;-68
2023/01/02 06:23:47;;;;;;;9.90;9.30;;;;;;;2.55;100.00;101925.69;5012002;28;20053;-69
2023/01/02 06:26:19;;;;;;;9.77;9.27;;;;;;;2.31;100.00;101931.41;5015334;28;20471;-70
2023/01/02 06:28:48;;;;;;;9.95;9.35;;;;;;;2.42;100.00;101930.78;5016473;28;20036;-68
2023/01/02 06:31:15;;;;;;;9.50;9.00;;;;;;;2.52;100.00;101925.91;5011531;28;20057;-68
2023/01/02 06:33:41;;;;;;;10.25;9.65;;;;;;;2.65;100.00;101938.19;5014540;28;20026;-68
2023/01/02 06:36:09;;;;;;;9.65;9.15;;;;;;;1.92;100.00;101937.97;5013989;28;20388;-68
2023/01/02 06:38:35;;;;;;;10.23;9.63;;;;;;;2.09;100.00;101929.16;5012234;28;20507;-69
2023/01/02 06:41:01;;;;;;;10.00;9.43;;;;;;;2.62;100.00;101935.72;5011696;28;20025;-68
2023/01/02 06:43:28;;;;;;;9.60;9.10;;;;;;;2.78;100.00;101938.31;5012731;28;20515;-68
2023/01/02 06:45:59;;;;;;;9.98;9.48;;;;;;;3.00;100.00;101937.88;5010639;28;20113;-68
2023/01/02 06:48:25;;;;;;;9.20;8.77;;;;;;;3.10;100.00;101939.03;5013018;28;20026;-67
2023/01/02 06:50:50;;;;;;;9.73;9.23;;;;;;;3.18;100.00;101943.81;5014452;28;20100;-69
2023/01/02 06:53:16;;;;;;;9.80;9.30;;;;;;;2.16;100.00;101943.59;5013926;28;20026;-68
2023/01/02 06:55:56;;;;;;;9.40;8.90;;;;;;;2.29;100.00;101949.00;5012564;28;20152;-69
2023/01/02 06:58:22;;;;;;;9.98;9.38;;;;;;;2.36;100.00;101955.56;5013458;28;20637;-68
2023/01/02 07:00:48;;;;;;;10.10;9.60;;;;;;;2.98;100.00;101951.09;5022952;28;20041;-68
2023/01/02 07:03:15;;;;;;;9.02;8.63;;;;;;;3.44;100.00;101947.47;5014745;28;20018;-68
2023/01/02 07:05:41;;;;;;;10.07;9.48;;;;;;;3.21;100.00;101948.88;5014654;28;20041;-68
2023/01/02 07:08:07;;;;;;;10.32;9.68;;;;;;;3.27;100.00;101953.75;5012657;28;20022;-69
2023/01/02 07:10:33;;;;;;;9.40;8.90;;;;;;;3.35;100.00;101958.53;5014242;28;20405;-69
2023/01/02 07:12:58;;;;;;;9.90;9.30;;;;;;;3.55;100.00;101966.03;5013508;28;20028;-68
2023/01/02 07:15:23;;;;;;;9.57;9.07;;;;;;;3.74;100.00;101963.09;5013503;28;20030;-68
2023/01/02 07:17:49;;;;;;;10.50;9.90;;;;;;;4.07;100.00;101960.16;5013112;28;20449;-68
2023/01/02 07:20:15;;;;;;;9.95;9.35;;;;;;;4.16;100.00;101960.41;5012157;28;20022;-68
2023/01/02 07:22:40;;;;;;;9.70;9.20;;;;;;;4.30;100.00;101956.06;5013781;28;20485;-67
2023/01/02 07:25:07;;;;;;;9.00;8.60;;;;;;;3.99;100.00;101959.81;5012578;28;20022;-69
2023/01/02 07:27:32;;;;;;;10.20;9.60;;;;;;;4.84;100.00;101961.25;5014082;28;20033;-68
2023/01/02 07:29:58;;;;;;;9.73;9.23;;;;;;;4.96;100.00;101957.81;5013232;28;20588;-68
2023/01/02 07:32:23;;;;;;;9.35;8.85;;;;;;;4.86;100.00;101947.06;5011940;28;20033;-68
2023/01/02 07:34:50;;;;;;;9.77;9.27;;;;;;;4.44;100.00;101948.13;5012716;28;20049;-68
2023/01/02 07:37:16;;;;;;;9.55;9.05;;;;;;;3.88;100.00;101942.09;5012402;28;20026;-68
2023/01/02 07:39:41;;;;;;;9.98;9.48;;;;;;;3.77;100.00;101929.66;5012477;28;20026;-68
2023/01/02 07:42:07;;;;;;;10.15;9.65;;;;;;;4.16;100.00;101936.78;5013629;28;20490;-67
2023/01/02 07:44:32;;;;;;;10.07;9.57;;;;;;;4.32;100.00;101941.03;5011564;28;20037;-67
2023/01/02 07:46:58;;;;;;;10.18;9.68;;;;;;;4.43;100.00;101938.56;5013047;28;20057;-69
2023/01/02 07:49:23;;;;;;;9.93;9.43;;;;;;;3.77;100.00;101947.19;5011723;28;20334;-67
2023/01/02 07:51:49;;;;;;;10.10;9.60;;;;;;;4.48;100.00;101941.75;5013738;28;20029;-68
2023/01/02 07:54:14;;;;;;;9.90;9.40;;;;;;;4.44;100.00;101948.97;5013503;28;20030;-68
2023/01/02 07:56:40;;;;;;;9.57;9.07;;;;;;;4.43;100.00;101947.28;5011984;28;20396;-68
2023/01/02 07:59:05;;;;;;;9.57;9.07;;;;;;;4.57;100.00;101946.38;5013717;28;20026;-69
2023/01/02 08:01:31;;;;;;;9.77;9.27;;;;;;;5.50;100.00;101952.34;5010792;28;20194;-68
2023/01/02 08:03:56;;;;;;;9.98;9.48;;;;;;;5.71;100.00;101957.91;5011140;28;20118;-69
2023/01/02 08:06:22;;;;;;;8.90;8.50;;;;;;;7.38;100.00;101960.44;5013601;28;20562;-68
2023/01/02 08:08:47;;;;;;;8.98;8.57;;;;;;;7.67;100.00;101944.97;5012048;28;20481;-69
2023/01/02 08:11:15;;;;;;;9.10;8.70;;;;;;;8.86;100.00;101939.69;5013277;28;20034;-71
2023/01/02 08:13:41;;;;;;;8.90;8.50;;;;;;;9.94;100.00;101934.78;5011160;28;20448;-69
2023/01/02 08:16:25;;;;;;;8.48;8.07;;;;;;;9.46;100.00;101921.34;5011532;28;20036;-67
2023/01/02 08:18:54;;;;;;;9.40;9.00;;;;;;;10.14;100.00;101920.59;5007532;28;20029;-69
2023/01/02 08:21:21;;;;;;;9.55;9.15;;;;;;;9.57;100.00;101906.22;5012707;28;20022;-68
2023/01/02 08:23:47;;;;;;;9.93;9.43;;;;;;;9.33;100.00;101921.59;5012291;28;20477;-68
2023/01/02 08:26:12;;;;;;;9.00;8.60;;;;;;;9.64;100.00;101919.75;5010586;28;20022;-68
2023/01/02 08:28:39;;;;;;;9.40;9.00;;;;;;;10.14;100.00;101919.75;5013343;28;20025;-68
2023/01/02 08:31:17;;;;;;;9.45;9.05;;;;;;;10.68;100.00;101927.19;5013196;28;20022;-68
2023/01/02 08:33:44;;;;;;;9.10;8.70;;;;;;;10.90;100.00;101928.69;5010226;28;20069;-68
2023/01/02 08:36:10;;;;;;;9.10;8.70;;;;;;;11.37;100.00;101931.34;5012543;28;20049;-68
2023/01/02 08:38:36;;;;;;;9.30;8.90;;;;;;;13.46;100.00;101931.84;5013292;28;20013;-68
2023/01/02 08:41:02;;;;;;;9.20;8.80;;;;;;;13.84;100.00;101932.34;5012906;28;20455;-68
2023/01/02 08:43:27;;;;;;;9.40;9.00;;;;;;;14.51;100.00;101921.66;5011989;28;20489;-69
2023/01/02 08:45:53;;;;;;;9.60;9.20;;;;;;;14.29;100.00;101920.44;5012784;28;20037;-68
2023/01/02 08:48:19;;;;;;;9.93;9.52;;;;;;;14.60;100.00;101921.47;5012029;28;20026;-68
2023/01/02 08:50:44;;;;;;;9.88;9.48;;;;;;;16.07;100.00;101926.41;5011418;28;20485;-68
2023/01/02 08:53:10;;;;;;;10.00;9.60;;;;;;;15.56;100.00;101936.66;5011685;28;20149;-68
2023/01/02 08:55:35;;;;;;;10.20;9.80;;;;;;;15.28;100.00;101925.59;5012777;28;20041;-69
2023/01/02 08:58:01;;;;;;;10.15;9.75;;;;;;;15.69;100.00;101923.63;5012323;28;20042;-67
2023/01/02 09:00:26;;;;;;;10.10;9.70;;;;;;;16.71;100.00;101918.97;5012557;28;20053;-68
2023/01/02 09:02:52;;;;;;;10.93;10.43;;;;;;;17.12;100.00;101921.25;5012650;28;20026;-68
2023/01/02 09:05:17;;;;;;;10.23;9.80;;;;;;;17.12;100.00;101916.72;5007560;28;20013;-68
2023/01/02 09:07:43;;;;;;;10.50;10.00;;;;;;;17.49;100.00;101914.13;5012444;28;20076;-69
2023/01/02 09:10:09;;;;;;;10.65;10.15;;;;;;;17.52;100.00;101911.91;5011824;28;20389;-69
2023/01/02 09:12:35;;;;;;;10.13;9.73;;;;;;;18.07;100.00;101907.84;5010508;28;20385;-69
2023/01/02 09:15:01;;;;;;;10.50;10.00;;;;;;;18.02;100.00;101896.00;5011269;28;20079;-67
2023/01/02 09:17:27;;;;;;;10.70;10.20;;;;;;;17.49;100.00;101896.19;5012328;28;20034;-68
2023/01/02 09:19:52;;;;;;;10.90;10.40;;;;;;;16.97;100.00;101893.59;5012038;28;20022;-68
2023/01/02 09:22:18;;;;;;;10.65;10.15;;;;;;;17.27;100.00;101886.41;5010870;28;20397;-68
2023/01/02 09:24:43;;;;;;;10.55;10.05;;;;;;;16.65;100.00;101887.50;5012282;28;20088;-68
2023/01/02 09:27:10;;;;;;;10.80;10.30;;;;;;;17.41;100.00;101880.19;5010149;28;20034;-68
2023/01/02 09:29:35;;;;;;;10.57;10.07;;;;;;;16.30;100.00;101868.38;5012568;28;20026;-68
2023/01/02 09:32:01;;;;;;;10.90;10.40;;;;;;;14.20;100.00;101863.56;5011751;28;20029;-67
2023/01/02 09:34:26;;;;;;;10.48;9.98;;;;;;;14.28;100.00;101862.72;5010284;28;20052;-68
2023/01/02 09:36:52;;;;;;;11.10;10.60;;;;;;;13.50;100.00;101850.56;5011136;28;20030;-68
2023/01/02 09:39:17;;;;;;;10.20;9.77;;;;;;;11.56;100.00;101848.06;5010039;28;20504;-67
2023/01/02 09:41:47;;;;;;;11.00;10.50;;;;;;;11.06;100.00;101851.91;5011757;28;20026;-69
2023/01/02 09:44:34;;;;;;;10.70;10.20;;;;;;;11.18;100.00;101839.28;5011956;28;20163;-68
2023/01/02 09:47:04;;;;;;;10.82;10.32;;;;;;;11.82;100.00;101841.03;5009595;28;20512;-69
2023/01/02 09:49:34;;;;;;;10.98;10.48;;;;;;;10.98;100.00;101832.38;5011593;28;20540;-68
2023/01/02 09:52:00;;;;;;;11.65;11.05;;;;;;;12.39;100.00;101832.75;5009475;28;20034;-68
2023/01/02 09:54:28;;;;;;;10.68;10.18;;;;;;;11.97;100.00;101824.56;5009377;28;20083;-68
2023/01/02 09:57:33;;;;;;;10.85;10.35;;;;;;;12.34;100.00;101825.25;5010137;28;20504;-69
2023/01/02 10:00:28;;;;;;;10.30;9.80;;;;;;;11.17;100.00;101819.03;5006820;28;20505;-68
2023/01/02 10:03:20;;;;;;;10.93;10.43;;;;;;;11.46;100.00;101818.88;5010353;28;20026;-70
2023/01/02 10:05:57;;;;;;;10.52;10.02;;;;;;;10.54;100.00;101824.13;5010974;28;20034;-70
2023/01/02 10:08:42;;;;;;;10.50;10.00;;;;;;;9.24;100.00;101817.28;5010450;28;20029;-68
2023/01/02 10:11:38;;;;;;;10.45;9.95;;;;;;;10.83;100.00;101817.91;5008917;28;20017;-70
2023/01/02 10:14:33;;;;;;;10.80;10.30;;;;;;;10.66;100.00;101812.38;5010273;28;20022;-68
2023/01/02 10:17:02;;;;;;;10.30;9.80;;;;;;;11.19;100.00;101803.78;5009338;28;20026;-69
2023/01/02 10:19:40;;;;;;;10.40;9.90;;;;;;;10.23;100.00;101796.94;5008136;28;20030;-69
2023/01/02 10:22:08;;;;;;;11.15;10.60;;;;;;;10.34;100.00;101801.25;5007562;28;20029;-68
2023/01/02 10:24:58;;;;;;;10.10;9.60;;;;;;;9.12;100.00;101779.50;5006871;28;20017;-69
2023/01/02 10:27:30;;;;;;;10.18;9.68;;;;;;;8.96;100.00;101794.19;5011444;28;20030;-68
2023/01/02 10:30:17;;;;;;;10.38;9.88;;;;;;;9.07;100.00;101802.06;5009699;28;20021;-69
2023/01/02 10:32:48;;;;;;;10.88;10.35;;;;;;;8.85;100.00;101795.97;5011036;28;20179;-67
2023/01/02 10:35:35;;;;;;;11.70;11.10;;;;;;;9.59;100.00;101798.28;5010369;28;20505;-68
2023/01/02 10:38:01;;;;;;;10.40;9.90;;;;;;;8.86;100.00;101795.00;5010253;28;20034;-68
2023/01/02 10:40:29;;;;;;;10.52;10.02;;;;;;;9.73;100.00;101801.53;5010596;28;20030;-68
2023/01/02 10:42:57;;;;;;;10.75;10.25;;;;;;;9.71;100.00;101798.19;5011208;28;20033;-69
2023/01/02 10:45:22;;;;;;;10.52;10.02;;;;;;;9.58;100.00;101798.44;5011161;28;20026;-69
2023/01/02 10:47:48;;;;;;;11.20;10.60;;;;;;;9.99;100.00;101800.00;5009721;28;20052;-68
2023/01/02 10:50:27;;;;;;;10.43;9.93;;;;;;;10.06;100.00;101793.16;5013145;28;20033;-68
2023/01/02 10:53:04;;;;;;;11.10;10.50;;;;;;;10.16;100.00;101790.50;5012200;28;20056;-68
2023/01/02 10:55:43;;;;;;;10.65;10.15;;;;;;;9.54;100.00;101787.25;5014761;28;20025;-68
2023/01/02 10:58:24;;;;;;;10.18;9.68;;;;;;;10.26;100.00;101787.88;5014213;28;20041;-67
2023/01/02 11:01:02;;;;;;;11.27;10.68;;;;;;;10.00;100.00;101782.28;5014446;28;20026;-69
2023/01/02 11:03:28;;;;;;;10.00;9.50;;;;;;;10.46;100.00;101773.59;5009124;28;20034;-68
2023/01/02 11:05:56;;;;;;;10.00;9.50;;;;;;;10.51;100.00;101771.34;5013848;28;20084;-68
2023/01/02 11:08:32;;;;;;;9.90;9.40;;;;;;;9.95;100.00;101774.75;5013468;28;20053;-69
2023/01/02 11:11:00;;;;;;;9.93;9.48;;;;;;;10.62;100.00;101768.50;5013068;28;20025;-69
2023/01/02 11:13:43;;;;;;;10.50;10.00;;;;;;;10.78;100.00;101760.75;5011950;28;20088;-70
2023/01/02 11:16:12;;;;;;;9.63;9.23;;;;;;;10.56;100.00;101761.13;5014478;28;20026;-69
2023/01/02 11:18:37;;;;;;;10.00;9.50;;;;;;;10.69;100.00;101756.34;5009555;28;20130;-68
2023/01/02 11:21:05;;;;;;;10.07;9.57;;;;;;;10.87;100.00;101750.25;5014180;28;20097;-68
2023/01/02 11:23:41;;;;;;;10.73;10.23;;;;;;;10.69;100.00;101731.63;5015960;28;20021;-68
2023/01/02 11:26:21;;;;;;;10.23;9.73;;;;;;;10.62;100.00;101730.53;5012385;28;20025;-68
2023/01/02 11:28:49;;;;;;;10.38;9.88;;;;;;;10.53;100.00;101737.53;5014019;28;20117;-70
2023/01/02 11:31:16;;;;;;;11.32;10.73;;;;;;;10.48;100.00;101727.34;5014210;28;20451;-68
2023/01/02 11:33:43;;;;;;;10.02;9.52;;;;;;;10.71;100.00;101729.66;5013743;28;20048;-70
2023/01/02 11:36:12;;;;;;;11.85;11.25;;;;;;;10.65;100.00;101728.44;5012625;28;20033;-69